Time;durP1;ratioP1;P1;durP2;ratioP2;P2;SDS_P1;SDS_P2;PMS_P1;PMS_P2;Temp;Humidity;BMP_temperature;BMP_pressure;BME280_temperature;BME280_humidity;BME280_pressure;Samples;Min_cycle;Max_cycle;Signal;HPM_P1;HPM_P2
2021/12/12 00:00:05;;;;;;;;;14.75;12.50;;;;;13.17;77.31;101934.25;5039673;28;65146;-74
2021/12/12 00:02:45;;;;;;;;;11.75;8.25;;;;;13.08;78.15;101937.31;5041418;28;61875;-74
2021/12/12 00:05:14;;;;;;;;;14.50;8.00;;;;;13.09;77.85;101929.50;5041355;28;62050;-75
2021/12/12 00:07:40;;;;;;;;;21.25;11.50;;;;;13.08;78.46;101929.41;5041514;28;61706;-75
2021/12/12 00:10:12;;;;;;;;;8.75;8.75;;;;;13.13;78.03;101924.38;5040473;28;61724;-75
2021/12/12 00:12:43;;;;;;;;;9.75;9.00;;;;;13.13;78.05;101930.56;5041479;28;61961;-75
2021/12/12 00:15:12;;;;;;;;;8.75;8.75;;;;;13.15;78.28;101925.38;5041284;28;62003;-75
2021/12/12 00:17:38;;;;;;;;;12.50;11.50;;;;;13.12;78.55;101919.94;5044800;28;61783;-74
2021/12/12 00:20:07;;;;;;;;;16.75;8.50;;;;;13.17;78.58;101913.19;5043747;28;61715;-75
2021/12/12 00:22:32;;;;;;;;;10.00;9.50;;;;;13.17;78.60;101918.44;5043439;28;62030;-75
2021/12/12 00:24:58;;;;;;;;;15.00;8.75;;;;;13.21;78.53;101917.78;5044829;28;61768;-75
2021/12/12 00:27:24;;;;;;;;;13.75;11.00;;;;;13.18;79.10;101920.28;5044466;28;61962;-75
2021/12/12 00:29:51;;;;;;;;;11.50;9.25;;;;;13.18;79.24;101913.25;5044179;28;61816;-75
2021/12/12 00:32:19;;;;;;;;;11.00;11.00;;;;;13.20;78.91;101919.53;5043096;28;61887;-75
2021/12/12 00:34:53;;;;;;;;;13.50;9.00;;;;;13.23;78.90;101921.41;5044423;28;62055;-75
2021/12/12 00:37:19;;;;;;;;;14.25;10.00;;;;;13.19;79.53;101920.34;5044580;28;61859;-75
2021/12/12 00:39:50;;;;;;;;;13.00;9.50;;;;;13.18;79.74;101922.91;5044187;28;62012;-75
2021/12/12 00:42:23;;;;;;;;;17.00;8.75;;;;;13.17;80.15;101918.44;5044668;28;62063;-75
2021/12/12 00:44:55;;;;;;;;;11.25;10.75;;;;;13.21;79.79;101920.41;5044428;28;61968;-75
2021/12/12 00:47:22;;;;;;;;;12.75;12.75;;;;;13.20;80.35;101923.91;5044369;28;61783;-75
2021/12/12 00:49:48;;;;;;;;;10.75;10.75;;;;;13.23;80.19;101924.94;5044006;28;61994;-75
2021/12/12 00:52:17;;;;;;;;;18.25;12.00;;;;;13.25;80.04;101925.03;5043220;28;61892;-75
2021/12/12 00:54:44;;;;;;;;;15.00;9.50;;;;;13.29;80.63;101927.94;5043259;28;61888;-75
2021/12/12 00:57:13;;;;;;;;;10.25;10.25;;;;;13.29;80.64;101921.75;5045253;28;62238;-75
2021/12/12 00:59:44;;;;;;;;;9.25;9.25;;;;;13.29;80.27;101925.28;5063928;28;61806;-75
2021/12/12 01:02:16;;;;;;;;;9.75;9.75;;;;;13.29;80.96;101925.28;5062904;28;61750;-75
2021/12/12 01:04:45;;;;;;;;;16.00;6.00;;;;;13.33;81.17;101925.47;5063152;28;61966;-75
2021/12/12 01:07:16;;;;;;;;;9.50;9.50;;;;;13.31;80.68;101922.75;5064620;28;61935;-75
2021/12/12 01:09:54;;;;;;;;;14.25;11.00;;;;;13.32;80.62;101918.38;5062453;28;65018;-75
2021/12/12 01:12:26;;;;;;;;;11.00;8.50;;;;;13.31;81.04;101917.47;5064525;28;61790;-75
2021/12/12 01:15:00;;;;;;;;;12.75;10.00;;;;;13.29;81.07;101916.50;5064622;28;61785;-75
2021/12/12 01:17:32;;;;;;;;;12.00;8.50;;;;;13.33;81.20;101907.00;5064103;28;61938;-75
2021/12/12 01:20:09;;;;;;;;;9.75;7.00;;;;;13.30;81.46;101915.66;5063597;28;62662;-75
2021/12/12 01:22:37;;;;;;;;;10.25;8.00;;;;;13.28;81.61;101912.94;5064323;28;62383;-75
2021/12/12 01:25:34;;;;;;;;;6.75;6.75;;;;;13.32;81.31;101913.09;5064514;28;62006;-75
2021/12/12 01:28:01;;;;;;;;;11.25;9.50;;;;;13.32;81.74;101919.25;5063606;28;62192;-75
2021/12/12 01:30:27;;;;;;;;;16.50;11.00;;;;;13.31;81.55;101919.22;5063246;28;62690;-75
2021/12/12 01:32:54;;;;;;;;;9.00;8.00;;;;;13.35;81.84;101916.81;5064183;28;61920;-75
2021/12/12 01:35:21;;;;;;;;;7.75;7.75;;;;;13.34;81.76;101922.00;5063776;28;61903;-75
2021/12/12 01:40:41;;;;;;;;;11.00;9.25;;;;;13.37;81.92;101927.41;5063206;28;61801;-75
2021/12/12 01:43:26;;;;;;;;;21.00;16.50;;;;;13.39;82.21;101931.03;5062450;28;62003;-75
2021/12/12 01:46:01;;;;;;;;;7.75;5.75;;;;;13.39;82.05;101933.66;5063912;28;61962;-75
2021/12/12 01:48:35;;;;;;;;;14.00;7.75;;;;;13.38;82.26;101934.50;5063987;28;61988;-75
2021/12/12 01:51:05;;;;;;;;;10.25;7.00;;;;;13.36;82.44;101931.78;5063249;28;62889;-75
2021/12/12 01:53:33;;;;;;;;;12.00;8.00;;;;;13.36;82.52;101929.16;5063504;28;61663;-75
2021/12/12 01:56:30;;;;;;;;;4.00;4.00;;;;;13.40;82.09;101933.75;5063685;28;61979;-75
2021/12/12 01:59:01;;;;;;;;;10.50;6.00;;;;;13.36;82.69;101938.81;5061877;28;61957;-75
2021/12/12 02:01:33;;;;;;;;;6.75;4.50;;;;;13.35;82.48;101937.91;5062998;28;62056;-75
2021/12/12 02:04:06;;;;;;;;;3.00;3.00;;;;;13.36;82.26;101944.97;5063582;28;62164;-75
2021/12/12 02:06:33;;;;;;;;;4.25;4.25;;;;;13.35;82.78;101950.19;5062047;28;62014;-75
2021/12/12 02:09:00;;;;;;;;;5.00;5.00;;;;;13.36;82.71;101954.63;5062520;28;61781;-75
2021/12/12 02:11:29;;;;;;;;;5.25;3.00;;;;;13.38;82.89;101952.97;5061585;28;62749;-75
2021/12/12 02:13:59;;;;;;;;;5.00;5.00;;;;;13.39;82.63;101945.16;5061777;28;62063;-75
2021/12/12 02:16:27;;;;;;;;;5.75;3.50;;;;;13.42;82.50;101954.94;5063442;28;61946;-75
2021/12/12 02:18:57;;;;;;;;;7.00;5.50;;;;;13.43;82.90;101955.03;5063483;28;61999;-75
2021/12/12 02:21:34;;;;;;;;;6.00;3.00;;;;;13.42;82.67;101955.84;5062643;28;62911;-75
2021/12/12 02:35:21;;;;;;;;;5.00;4.00;;;;;13.47;82.82;101953.44;5063257;28;61745;-75
2021/12/12 02:37:49;;;;;;;;;7.00;5.75;;;;;13.47;82.97;101959.66;5061705;28;61842;-75
2021/12/12 02:40:28;;;;;;;;;3.25;3.25;;;;;13.46;82.84;101959.56;5062403;28;61867;-75
2021/12/12 02:42:54;;;;;;;;;3.00;3.00;;;;;13.48;83.20;101960.53;5062317;28;62076;-75
2021/12/12 02:45:21;;;;;;;;;6.25;4.75;;;;;13.52;83.22;101961.59;5062941;28;61852;-75
2021/12/12 02:47:54;;;;;;;;;3.75;3.75;;;;;13.54;83.37;101959.94;5062824;28;62059;-75
2021/12/12 02:50:22;;;;;;;;;7.75;4.50;;;;;13.54;83.55;101965.19;5063065;28;61916;-75
2021/12/12 02:53:06;;;;;;;;;3.75;3.75;;;;;13.57;83.24;101966.28;5060611;28;63889;-75
2021/12/12 02:55:37;;;;;;;;;2.00;2.00;;;;;13.56;83.13;101969.75;5062221;28;62258;-75
2021/12/12 02:58:05;;;;;;;;;6.00;6.00;;;;;13.58;83.63;101977.72;5062268;28;62316;-75
2021/12/12 03:00:36;;;;;;;;;3.00;3.00;;;;;13.57;83.96;101971.56;5062963;28;62211;-75
2021/12/12 03:03:02;;;;;;;;;5.50;5.50;;;;;13.58;83.71;101975.09;5062249;28;62024;-75
2021/12/12 03:05:33;;;;;;;;;4.25;4.25;;;;;13.59;83.38;101971.66;5062488;28;61811;-75
2021/12/12 03:07:59;;;;;;;;;6.00;2.50;;;;;13.50;84.12;101977.34;5062359;28;62015;-75
2021/12/12 03:10:29;;;;;;;;;7.50;7.00;;;;;13.55;83.40;101978.47;5062770;28;61794;-75
2021/12/12 03:12:55;;;;;;;;;6.50;3.75;;;;;13.56;83.59;101976.75;5061757;28;62231;-75
2021/12/12 03:15:25;;;;;;;;;3.00;3.00;;;;;13.57;83.11;101975.94;5062599;28;61800;-75
2021/12/12 03:17:53;;;;;;;;;5.75;5.50;;;;;13.60;83.37;101974.34;5062479;28;61759;-75
2021/12/12 03:20:31;;;;;;;;;5.50;3.75;;;;;13.61;83.14;101980.53;5062515;28;61845;-75
2021/12/12 03:23:06;;;;;;;;;5.75;5.75;;;;;13.61;82.90;101977.91;5061867;28;61917;-75
2021/12/12 03:25:35;;;;;;;;;6.50;5.00;;;;;13.65;83.02;101977.25;5062257;28;61897;-75
2021/12/12 03:28:00;;;;;;;;;9.00;5.00;;;;;13.65;83.22;101980.78;5062093;28;61764;-75
2021/12/12 03:30:27;;;;;;;;;3.50;3.25;;;;;13.66;83.15;101982.56;5062674;28;61805;-75
2021/12/12 03:32:52;;;;;;;;;5.50;5.50;;;;;13.65;83.43;101972.84;5061576;28;62050;-75
2021/12/12 03:35:18;;;;;;;;;4.50;4.00;;;;;13.65;83.22;101972.84;5060816;28;61971;-75
2021/12/12 03:37:44;;;;;;;;;6.00;4.00;;;;;13.62;83.49;101964.75;5062361;28;61734;-75
2021/12/12 03:40:19;;;;;;;;;7.75;6.25;;;;;13.66;83.51;101973.75;5062277;28;61867;-74
2021/12/12 03:42:47;;;;;;;;;2.00;1.00;;;;;13.68;83.66;101974.75;5061504;28;62934;-75
2021/12/12 03:45:14;;;;;;;;;7.50;6.00;;;;;13.65;83.22;101974.59;5062154;28;62015;-75
2021/12/12 03:48:23;;;;;;;;;2.50;2.50;;;;;13.68;83.05;101977.38;5062385;28;61951;-75
2021/12/12 03:50:52;;;;;;;;;6.50;5.75;;;;;13.63;83.93;101974.50;5061957;28;62146;-75
2021/12/12 03:53:18;;;;;;;;;8.50;5.00;;;;;13.64;83.55;101978.94;5065064;28;62008;-75
2021/12/12 03:55:46;;;;;;;;;6.00;6.00;;;;;13.64;83.63;101978.03;5065377;28;61793;-75
2021/12/12 03:58:12;;;;;;;;;8.00;6.25;;;;;13.63;83.39;101974.50;5065024;28;61760;-75
2021/12/12 04:00:48;;;;;;;;;7.75;6.75;;;;;13.69;83.53;101971.28;5065768;28;62013;-75
2021/12/12 04:03:15;;;;;;;;;5.75;5.50;;;;;13.73;83.72;101986.41;5064833;28;61803;-75
2021/12/12 04:05:49;;;;;;;;;6.25;6.00;;;;;13.74;83.62;101987.34;5065394;28;62072;-75
2021/12/12 04:08:15;;;;;;;;;10.75;9.25;;;;;13.73;83.63;101983.78;5065427;28;61952;-75
2021/12/12 04:10:42;;;;;;;;;2.00;2.00;;;;;13.74;83.54;101982.97;5065173;28;62028;-75
2021/12/12 04:13:08;;;;;;;;;7.75;6.00;;;;;13.74;83.67;101987.34;5064743;28;61825;-75
2021/12/12 04:15:34;;;;;;;;;7.50;7.50;;;;;13.72;83.88;101987.25;5065432;28;61861;-75
2021/12/12 04:17:59;;;;;;;;;8.25;7.75;;;;;13.74;83.83;101990.00;5065157;28;61803;-75
2021/12/12 04:20:32;;;;;;;;;9.50;8.00;;;;;13.73;84.02;101989.06;5065275;28;61898;-75
2021/12/12 04:22:58;;;;;;;;;8.25;6.25;;;;;13.74;83.93;101993.53;5064561;28;62025;-75
2021/12/12 04:25:24;;;;;;;;;10.50;7.00;;;;;13.75;84.21;101990.03;5064787;28;61935;-75
2021/12/12 04:27:52;;;;;;;;;6.50;6.50;;;;;13.78;84.06;101999.88;5065326;28;61853;-75
2021/12/12 04:30:19;;;;;;;;;8.00;8.00;;;;;13.78;84.46;102000.78;5065329;28;61829;-75
2021/12/12 04:32:45;;;;;;;;;9.00;8.50;;;;;13.81;84.17;101997.38;5064327;28;63252;-75
2021/12/12 04:35:17;;;;;;;;;12.00;10.75;;;;;13.77;84.68;101995.41;5064884;28;61965;-75
2021/12/12 04:37:44;;;;;;;;;10.50;10.00;;;;;13.82;84.18;102015.03;5063948;28;61907;-75
2021/12/12 04:40:15;;;;;;;;;10.50;9.00;;;;;13.82;84.61;102007.13;5064663;28;62101;-75
2021/12/12 04:42:42;;;;;;;;;10.25;10.00;;;;;13.82;84.60;102004.50;5062994;28;64147;-75
2021/12/12 04:45:12;;;;;;;;;10.00;10.00;;;;;13.82;84.30;102005.38;5064840;28;61886;-75
2021/12/12 04:50:40;;;;;;;;;22.75;12.00;;;;;13.83;84.66;102012.47;5064686;28;61829;-75
2021/12/12 04:53:18;;;;;;;;;12.50;9.25;;;;;13.87;84.38;102016.16;5063766;28;62038;-75
2021/12/12 04:56:16;;;;;;;;;16.75;11.75;;;;;13.86;84.51;102015.28;5064454;28;61870;-75
2021/12/12 04:58:49;;;;;;;;;13.25;9.00;;;;;13.84;84.52;102014.28;5062816;28;61905;-75
2021/12/12 05:01:32;;;;;;;;;14.00;8.50;;;;;13.82;84.89;102018.56;5064450;28;61765;-75
2021/12/12 05:04:16;;;;;;;;;13.00;11.00;;;;;13.88;84.99;102017.97;5064001;28;61984;-75
2021/12/12 05:06:50;;;;;;;;;12.25;9.25;;;;;13.89;84.92;102022.44;5064366;28;61948;-75
2021/12/12 05:09:38;;;;;;;;;9.00;9.00;;;;;13.88;85.10;102021.53;5064043;28;61923;-75
2021/12/12 05:12:33;;;;;;;;;11.25;9.75;;;;;13.87;85.20;102021.44;5064465;28;62117;-75
2021/12/12 05:15:06;;;;;;;;;11.25;8.25;;;;;13.86;85.09;102027.53;5062598;28;64094;-75
2021/12/12 05:17:38;;;;;;;;;14.00;12.75;;;;;13.86;85.03;102020.56;5064377;28;61911;-75
2021/12/12 05:20:13;;;;;;;;;13.00;11.75;;;;;13.90;85.36;102022.53;5064234;28;61972;-75
2021/12/12 05:22:44;;;;;;;;;12.00;9.25;;;;;13.93;85.15;102031.41;5062736;28;61901;-75
2021/12/12 05:25:16;;;;;;;;;11.25;9.00;;;;;13.94;84.96;102026.19;5062019;28;63844;-75
2021/12/12 05:27:43;;;;;;;;;14.00;12.25;;;;;13.89;85.63;102030.34;5064288;28;61813;-75
2021/12/12 05:30:16;;;;;;;;;17.25;16.00;;;;;13.95;85.26;102029.78;5064010;28;61968;-75
2021/12/12 05:32:42;;;;;;;;;16.50;10.50;;;;;13.95;85.05;102035.94;5064458;28;61741;-75
2021/12/12 05:35:11;;;;;;;;;13.75;10.00;;;;;13.98;85.28;102041.38;5063218;28;62006;-76
2021/12/12 05:37:37;;;;;;;;;11.00;10.25;;;;;13.98;85.24;102041.38;5062331;28;61931;-75
2021/12/12 05:40:07;;;;;;;;;15.50;11.00;;;;;14.01;85.27;102041.53;5064050;28;62155;-75
2021/12/12 05:42:33;;;;;;;;;16.00;11.75;;;;;13.99;85.19;102043.19;5064169;28;61952;-75
2021/12/12 05:44:59;;;;;;;;;17.00;13.00;;;;;14.01;85.29;102046.81;5063533;28;62269;-75
2021/12/12 05:47:25;;;;;;;;;11.50;10.25;;;;;14.03;85.34;102053.09;5063427;28;62121;-75
2021/12/12 05:49:51;;;;;;;;;11.50;9.25;;;;;14.05;85.00;102039.94;5063842;28;62051;-75
2021/12/12 05:52:21;;;;;;;;;12.75;10.50;;;;;14.08;84.95;102040.09;5063674;28;61851;-75
2021/12/12 05:54:49;;;;;;;;;13.00;12.00;;;;;14.07;85.21;102038.28;5063189;28;61800;-75
2021/12/12 05:57:19;;;;;;;;;17.75;11.00;;;;;14.05;85.22;102043.50;5063312;28;62066;-75
2021/12/12 05:59:45;;;;;;;;;13.75;11.75;;;;;14.05;85.55;102037.28;5063792;28;62094;-75
2021/12/12 06:02:12;;;;;;;;;16.00;11.00;;;;;14.05;85.55;102051.44;5063740;28;61939;-75
2021/12/12 06:04:39;;;;;;;;;11.75;9.25;;;;;14.04;85.48;102069.81;5061443;28;63708;-75
2021/12/12 06:07:07;;;;;;;;;12.00;11.00;;;;;14.07;85.43;102067.31;5063394;28;62039;-75
2021/12/12 06:09:34;;;;;;;;;11.50;11.50;;;;;14.03;86.08;102076.84;5063504;28;61763;-75
2021/12/12 06:12:03;;;;;;;;;11.75;10.25;;;;;14.02;85.73;102074.13;5063840;28;61902;-75
2021/12/12 06:14:31;;;;;;;;;11.75;10.75;;;;;14.06;85.46;102074.34;5061771;28;61907;-75
2021/12/12 06:16:59;;;;;;;;;12.25;12.25;;;;;14.08;85.55;102080.63;5063611;28;62119;-75
2021/12/12 06:19:25;;;;;;;;;16.25;11.25;;;;;14.07;85.27;102075.25;5063095;28;61928;-75
2021/12/12 06:21:57;;;;;;;;;12.00;10.00;;;;;14.11;84.83;102078.13;5061643;28;62444;-75
2021/12/12 06:24:25;;;;;;;;;17.00;13.50;;;;;14.15;85.14;102075.66;5062774;28;61952;-75
2021/12/12 06:26:52;;;;;;;;;15.75;11.25;;;;;14.16;84.71;102081.03;5062602;28;61906;-75
2021/12/12 06:29:18;;;;;;;;;11.25;9.75;;;;;14.13;84.83;102079.94;5061695;28;61778;-75
2021/12/12 06:31:46;;;;;;;;;10.25;7.50;;;;;14.16;84.76;102090.66;5063422;28;62085;-75
2021/12/12 06:34:12;;;;;;;;;9.75;9.75;;;;;14.14;85.15;102094.94;5061078;28;63811;-75
2021/12/12 06:36:38;;;;;;;;;14.50;9.75;;;;;14.15;85.32;102091.50;5062744;28;61973;-75
2021/12/12 06:39:14;;;;;;;;;10.00;10.00;;;;;14.20;84.92;102105.81;5063298;28;61973;-75
2021/12/12 06:41:48;;;;;;;;;13.00;10.25;;;;;14.21;84.88;102099.72;5062925;28;61681;-75
2021/12/12 06:44:14;;;;;;;;;16.25;12.50;;;;;14.15;85.43;102107.34;5062542;28;62407;-75
2021/12/12 06:46:42;;;;;;;;;12.50;10.25;;;;;14.15;85.80;102107.34;5062784;28;61826;-75
2021/12/12 06:49:10;;;;;;;;;8.75;8.75;;;;;14.11;85.72;102115.06;5078467;28;61835;-75
2021/12/12 06:51:40;;;;;;;;;16.50;9.25;;;;;14.14;85.89;102110.78;5062719;28;62041;-75
2021/12/12 06:54:06;;;;;;;;;10.00;8.25;;;;;14.15;85.70;102113.50;5062120;28;62003;-75
2021/12/12 06:56:32;;;;;;;;;13.25;12.00;;;;;14.13;85.97;102109.88;5060942;28;61827;-75
2021/12/12 06:58:58;;;;;;;;;12.00;9.00;;;;;14.19;85.93;102114.59;5074642;28;61993;-75
2021/12/12 07:01:28;;;;;;;;;14.50;9.75;;;;;14.17;86.14;102116.25;5062976;28;61708;-75
2021/12/12 07:03:55;;;;;;;;;12.75;9.00;;;;;14.17;85.78;102126.81;5061907;28;62570;-75
2021/12/12 07:06:26;;;;;;;;;11.50;10.00;;;;;14.15;86.18;102123.19;5062432;28;62199;-75
2021/12/12 07:08:52;;;;;;;;;10.00;5.75;;;;;14.15;86.08;102120.53;5061107;28;61969;-75
2021/12/12 07:11:21;;;;;;;;;8.75;6.25;;;;;14.19;85.84;102122.50;5062893;28;61970;-75
2021/12/12 07:13:49;;;;;;;;;14.75;6.00;;;;;14.20;86.46;102121.66;5061922;28;62833;-75
2021/12/12 07:16:15;;;;;;;;;12.25;9.50;;;;;14.19;86.58;102126.06;5062456;28;61727;-75
2021/12/12 07:18:41;;;;;;;;;8.25;6.25;;;;;14.16;86.77;102122.34;5061976;28;61883;-75
2021/12/12 07:21:10;;;;;;;;;11.00;8.50;;;;;14.16;86.80;102124.97;5062434;28;61835;-75
2021/12/12 07:23:38;;;;;;;;;10.50;8.00;;;;;14.17;86.53;102130.34;5061711;28;62857;-75
2021/12/12 07:26:06;;;;;;;;;13.25;9.00;;;;;14.26;86.02;102130.81;5061716;28;61941;-75
2021/12/12 07:28:33;;;;;;;;;13.00;8.75;;;;;14.28;86.08;102141.47;5062141;28;61966;-75
2021/12/12 07:31:06;;;;;;;;;10.75;10.00;;;;;14.24;86.43;102139.47;5062567;28;61925;-75
2021/12/12 07:33:34;;;;;;;;;12.00;8.00;;;;;14.26;86.70;102140.47;5061642;28;63228;-75
2021/12/12 07:36:03;;;;;;;;;9.50;8.75;;;;;14.32;86.32;102143.44;5060685;28;61877;-75
2021/12/12 07:38:30;;;;;;;;;9.25;9.00;;;;;14.34;85.96;102144.41;5062208;28;62089;-75
2021/12/12 07:40:57;;;;;;;;;12.75;10.00;;;;;14.33;86.30;102147.88;5060921;28;62400;-75
2021/12/12 07:43:23;;;;;;;;;8.00;8.00;;;;;14.32;86.15;102146.97;5060212;28;63739;-75
2021/12/12 07:45:49;;;;;;;;;13.00;7.00;;;;;14.37;86.26;102144.56;5062030;28;61931;-75
2021/12/12 07:48:15;;;;;;;;;11.50;10.00;;;;;14.38;85.88;102142.84;5062033;28;62083;-75
2021/12/12 07:50:44;;;;;;;;;12.50;10.00;;;;;14.44;86.02;102148.41;5077224;28;61917;-76
2021/12/12 07:53:10;;;;;;;;;6.00;5.00;;;;;14.42;85.71;102143.06;5061556;28;62802;-76
2021/12/12 07:55:37;;;;;;;;;11.50;10.75;;;;;14.44;85.65;102152.00;5061890;28;61987;-76
2021/12/12 07:58:13;;;;;;;;;10.50;6.50;;;;;14.45;85.99;102147.59;5065717;28;62032;-76
2021/12/12 08:00:42;;;;;;;;;9.25;7.25;;;;;14.44;86.16;102158.97;5080932;28;62211;-76
2021/12/12 08:03:10;;;;;;;;;6.00;6.00;;;;;14.43;86.30;102158.06;5081679;27;61894;-77
2021/12/12 08:05:36;;;;;;;;;9.75;7.00;;;;;14.45;86.52;102160.81;5080539;28;62022;-77
2021/12/12 08:08:06;;;;;;;;;8.50;7.75;;;;;14.49;86.08;102155.75;5081895;27;61819;-77
2021/12/12 08:10:33;;;;;;;;;7.75;6.00;;;;;14.53;86.33;102155.06;5082115;27;62066;-77
2021/12/12 08:12:59;;;;;;;;;9.25;8.00;;;;;14.53;86.17;102168.28;5081386;27;62821;-77
2021/12/12 08:15:27;;;;;;;;;7.75;7.25;;;;;14.59;85.52;102166.81;5082057;27;61796;-77
2021/12/12 08:17:55;;;;;;;;;7.50;7.50;;;;;14.59;85.54;102161.53;5081668;28;62113;-77
2021/12/12 08:20:21;;;;;;;;;9.75;7.50;;;;;14.65;85.60;102161.84;5080778;27;62309;-77
2021/12/12 08:22:48;;;;;;;;;7.75;4.50;;;;;14.70;85.31;102176.19;5081347;28;61824;-78
2021/12/12 08:25:16;;;;;;;;;9.50;6.25;;;;;14.72;85.58;102172.81;5081719;28;61695;-77
2021/12/12 08:27:42;;;;;;;;;7.00;7.00;;;;;14.77;85.55;102174.78;5080728;27;62214;-76
2021/12/12 08:30:11;;;;;;;;;9.00;7.25;;;;;14.80;85.42;102183.72;5081698;28;62295;-75
2021/12/12 08:32:38;;;;;;;;;12.50;7.50;;;;;14.76;85.63;102183.50;5081360;27;61871;-76
2021/12/12 08:35:06;;;;;;;;;6.50;5.00;;;;;14.76;86.14;102187.09;5081605;28;61834;-75
2021/12/12 08:37:32;;;;;;;;;8.75;8.75;;;;;14.75;86.27;102185.25;5083387;28;62154;-75
2021/12/12 08:39:58;;;;;;;;;8.00;7.00;;;;;14.76;86.18;102187.09;5083750;27;61798;-75
2021/12/12 08:42:27;;;;;;;;;8.00;6.75;;;;;14.71;86.14;102183.28;5083260;28;63496;-74
2021/12/12 08:44:56;;;;;;;;;11.25;10.75;;;;;14.78;86.29;102184.50;5084655;27;61876;-75
2021/12/12 08:47:22;;;;;;;;;11.00;8.00;;;;;14.81;85.72;102188.22;5085109;27;61844;-75
2021/12/12 08:49:47;;;;;;;;;7.25;7.25;;;;;14.84;86.17;102184.81;5084981;27;61824;-75
2021/12/12 08:52:18;;;;;;;;;9.50;7.75;;;;;14.95;86.02;102191.53;5067777;28;61791;-75
2021/12/12 08:54:48;;;;;;;;;10.00;9.50;;;;;15.00;85.86;102191.78;5043880;28;61822;-76
2021/12/12 08:57:31;;;;;;;;;16.00;10.50;;;;;15.09;85.56;102190.47;5050618;28;61976;-76
2021/12/12 08:59:59;;;;;;;;;11.25;7.75;;;;;15.13;85.38;102203.00;5052854;27;61939;-75
2021/12/12 09:02:26;;;;;;;;;7.00;7.00;;;;;15.01;85.24;102198.84;5051415;28;61941;-76
2021/12/12 09:05:00;;;;;;;;;7.50;6.00;;;;;15.07;85.51;102204.44;5057363;28;61871;-76
2021/12/12 09:07:36;;;;;;;;;6.50;6.50;;;;;15.08;85.65;102198.31;5035731;28;61875;-76
2021/12/12 09:10:26;;;;;;;;;10.00;8.25;;;;;15.13;85.43;102203.00;5053803;28;62115;-76
2021/12/12 09:12:56;;;;;;;;;9.00;8.25;;;;;15.20;85.22;102201.56;5051305;28;62611;-76
2021/12/12 09:15:26;;;;;;;;;8.25;7.25;;;;;15.28;85.10;102205.50;5060740;28;61873;-76
2021/12/12 09:18:06;;;;;;;;;8.00;8.00;;;;;15.34;84.75;102204.88;5074800;28;61894;-76
2021/12/12 09:20:46;;;;;;;;;9.75;9.00;;;;;15.35;85.23;102209.34;5052288;28;61849;-75
2021/12/12 09:23:37;;;;;;;;;10.75;7.25;;;;;15.43;85.31;102209.72;5064720;28;63757;-77
2021/12/12 09:26:11;;;;;;;;;5.00;4.25;;;;;15.50;84.85;102203.84;5053132;28;61930;-75
2021/12/12 09:28:47;;;;;;;;;7.50;6.25;;;;;15.61;84.74;102209.66;5052579;28;61722;-75
2021/12/12 09:31:39;;;;;;;;;7.75;6.00;;;;;15.64;84.49;102216.00;5052374;28;61763;-74
2021/12/12 09:34:10;;;;;;;;;11.00;11.00;;;;;15.69;84.31;102210.94;5052774;28;62624;-74
2021/12/12 09:36:43;;;;;;;;;7.00;5.50;;;;;15.70;84.15;102215.38;5062607;28;62091;-74
2021/12/12 09:39:29;;;;;;;;;11.75;5.00;;;;;15.79;84.12;102213.19;5063999;28;62125;-74
2021/12/12 09:42:15;;;;;;;;;9.50;9.00;;;;;15.86;83.74;102217.03;5064005;28;61891;-74
2021/12/12 09:44:59;;;;;;;;;7.50;6.00;;;;;15.93;83.79;102212.06;5063032;28;61842;-74
2021/12/12 09:48:25;;;;;;;;;10.75;8.00;;;;;16.08;83.64;102216.25;5063562;28;61814;-75
2021/12/12 09:51:19;;;;;;;;;8.75;5.75;;;;;16.21;83.36;102212.41;5062810;28;61818;-75
2021/12/12 09:54:15;;;;;;;;;7.00;7.00;;;;;16.29;83.01;102214.56;5056984;28;61990;-76
2021/12/12 09:56:49;;;;;;;;;10.75;7.25;;;;;16.33;82.59;102213.84;5057251;28;62009;-76
2021/12/12 09:59:32;;;;;;;;;7.50;6.00;;;;;16.43;82.30;102216.91;5066853;28;61853;-76
2021/12/12 10:02:09;;;;;;;;;7.00;6.00;;;;;16.51;82.02;102212.84;5063362;28;61748;-76
2021/12/12 10:04:52;;;;;;;;;7.00;6.00;;;;;16.61;81.98;102216.81;5063277;28;61762;-79
2021/12/12 10:07:48;;;;;;;;;9.75;7.50;;;;;16.69;81.75;102210.97;5050478;28;61937;-74
2021/12/12 10:10:25;;;;;;;;;9.00;8.50;;;;;16.64;81.16;102209.88;5048614;28;61819;-74
2021/12/12 10:13:22;;;;;;;;;10.00;8.50;;;;;16.64;81.33;102212.50;5050708;28;62002;-74
2021/12/12 10:15:56;;;;;;;;;10.50;7.00;;;;;16.67;81.07;102211.75;5044535;28;62080;-74
2021/12/12 10:18:51;;;;;;;;;8.25;7.50;;;;;16.75;80.95;102211.25;5044841;28;61942;-74
2021/12/12 10:21:21;;;;;;;;;10.25;9.00;;;;;16.77;81.22;102212.22;5042534;28;62094;-73
2021/12/12 10:24:08;;;;;;;;;9.50;7.00;;;;;16.84;80.97;102213.41;5053546;28;61833;-75
2021/12/12 10:26:48;;;;;;;;;11.75;8.50;;;;;16.84;80.68;102213.41;5051308;28;62121;-76
2021/12/12 10:29:26;;;;;;;;;7.50;7.00;;;;;16.90;81.16;102218.97;5058108;28;62107;-76
2021/12/12 10:32:02;;;;;;;;;10.25;7.75;;;;;16.94;80.64;102231.50;5062679;28;62070;-75
2021/12/12 10:35:00;;;;;;;;;13.50;9.75;;;;;16.91;80.93;102219.88;5058782;28;61992;-76
2021/12/12 10:37:32;;;;;;;;;3.50;2.25;;;;;16.96;80.79;102221.84;5051193;28;61990;-79
2021/12/12 10:40:18;;;;;;;;;9.00;6.75;;;;;16.93;79.57;102221.75;5059863;28;61907;-80
2021/12/12 10:42:52;;;;;;;;;9.50;9.25;;;;;16.92;80.14;102227.91;5057586;28;62094;-76
2021/12/12 10:45:25;;;;;;;;;8.50;8.50;;;;;16.90;80.42;102218.03;5049649;28;61690;-77
2021/12/12 10:48:16;;;;;;;;;9.50;6.75;;;;;16.86;80.54;102213.44;5054833;28;61977;-77
2021/12/12 10:51:11;;;;;;;;;10.50;7.00;;;;;16.91;80.54;102222.53;5052956;28;61970;-76
2021/12/12 10:53:59;;;;;;;;;8.50;8.50;;;;;17.02;80.51;102223.88;5061080;28;61818;-81
2021/12/12 10:56:42;;;;;;;;;6.25;6.25;;;;;17.19;80.03;102224.56;5053653;28;62085;-82
2021/12/12 10:59:32;;;;;;;;;6.75;6.75;;;;;17.30;79.72;102219.69;5053444;28;62008;-83
2021/12/12 11:02:05;;;;;;;;;8.25;8.00;;;;;17.41;79.24;102225.41;5046786;28;64963;-82
2021/12/12 11:04:39;;;;;;;;;8.75;8.75;;;;;17.48;79.81;102224.78;5051143;28;61934;-82
2021/12/12 11:07:16;;;;;;;;;5.50;5.00;;;;;17.52;79.00;102226.72;5050963;28;61889;-81
2021/12/12 11:09:56;;;;;;;;;6.75;6.25;;;;;17.57;78.88;102218.09;5059208;28;61812;-79
2021/12/12 11:12:49;;;;;;;;;13.00;9.50;;;;;17.67;78.92;102226.41;5057249;28;62648;-80
2021/12/12 11:15:25;;;;;;;;;7.50;7.50;;;;;17.71;78.61;102218.63;5061601;28;61716;-79
2021/12/12 11:18:05;;;;;;;;;6.25;6.25;;;;;17.78;78.48;102225.06;5062109;28;62144;-81
2021/12/12 11:20:51;;;;;;;;;7.25;6.25;;;;;17.67;77.86;102215.78;5062247;28;61896;-79
2021/12/12 11:23:43;;;;;;;;;6.25;6.25;;;;;17.72;78.55;102225.75;5061187;28;62817;-80
2021/12/12 11:26:13;;;;;;;;;12.25;9.00;;;;;17.71;78.25;102225.69;5058995;28;61866;-80
2021/12/12 11:28:58;;;;;;;;;13.50;11.00;;;;;17.63;78.85;102222.75;5060631;28;62041;-80
2021/12/12 11:31:35;;;;;;;;;11.25;10.25;;;;;17.58;79.19;102227.88;5061004;28;61815;-80
2021/12/12 11:34:02;;;;;;;;;11.75;9.25;;;;;17.56;79.33;102229.56;5060030;28;64704;-80
2021/12/12 11:36:32;;;;;;;;;24.25;18.25;;;;;17.54;79.63;102228.59;5060474;28;61942;-80
2021/12/12 11:39:42;;;;;;;;;11.75;10.75;;;;;17.49;80.01;102226.63;5061773;28;61722;-80
2021/12/12 11:42:36;;;;;;;;;12.00;10.75;;;;;17.62;79.93;102220.94;5060872;28;62126;-79
2021/12/12 11:45:16;;;;;;;;;7.00;7.00;;;;;17.67;79.41;102224.66;5056123;28;63886;-80
2021/12/12 11:48:15;;;;;;;;;12.00;12.00;;;;;17.74;78.94;102221.41;5061979;28;61827;-80
2021/12/12 11:50:56;;;;;;;;;8.00;8.00;;;;;17.72;79.23;102217.78;5061651;28;61884;-80
2021/12/12 11:53:37;;;;;;;;;13.00;8.50;;;;;17.67;79.10;102215.78;5062158;28;61747;-80
2021/12/12 11:56:22;;;;;;;;;11.25;9.75;;;;;17.56;79.40;102215.38;5060976;28;61849;-79
2021/12/12 11:59:03;;;;;;;;;17.00;13.25;;;;;17.62;79.35;102212.97;5070075;28;61915;-80
2021/12/12 12:01:40;;;;;;;;;13.00;13.00;;;;;17.66;79.24;102227.28;5082074;28;61964;-80